Time;durP1;ratioP1;P1;durP2;ratioP2;P2;SDS_P1;SDS_P2;PMS_P1;PMS_P2;Temp;Humidity;BMP_temperature;BMP_pressure;BME280_temperature;BME280_humidity;BME280_pressure;Samples;Min_cycle;Max_cycle;Signal;HPM_P1;HPM_P2
2023/05/29 00:00:17;;;;;;;9.00;4.10;;;;;;;8.53;64.15;100476.83;133907;1298;22210;-75
2023/05/29 00:03:33;;;;;;;;;;;;;;;;;;;;;
2023/05/29 00:06:40;;;;;;;8.20;4.10;;;;;;;8.45;64.72;100479.39;133804;1302;22242;-76
2023/05/29 00:09:44;;;;;;;7.00;4.30;;;;;;;8.26;64.83;100476.29;133900;1299;22366;-75
2023/05/29 00:12:48;;;;;;;;;;;;;;;8.15;65.18;100472.83;133916;1304;22474;-75
2023/05/29 00:16:12;;;;;;;5.10;3.90;;;;;;;8.06;65.34;100468.85;133689;1301;23262;-75
2023/05/29 00:19:46;;;;;;;;;;;;;;;8.04;65.47;100469.52;133866;1301;23291;-75
2023/05/29 00:23:06;;;;;;;;;;;;;;;;;;;;;
2023/05/29 00:26:24;;;;;;;;;;;;;;;;;;;;;
2023/05/29 00:29:47;;;;;;;6.50;4.20;;;;;;;8.00;65.60;100466.09;133937;1300;23141;-75
2023/05/29 00:33:09;;;;;;;7.30;4.00;;;;;;;7.94;65.80;100469.48;133876;1301;23140;-75
2023/05/29 00:36:21;;;;;;;;;;;;;;;;;;;;;
2023/05/29 00:39:38;;;;;;;7.20;4.50;;;;;;;7.86;66.01;100469.29;133872;1301;22425;-77
2023/05/29 00:43:17;;;;;;;8.60;4.60;;;;;;;7.85;66.17;100465.02;133912;1300;22360;-74
2023/05/29 00:46:53;;;;;;;8.50;4.60;;;;;;;7.84;66.20;100462.63;133850;1299;22394;-75
2023/05/29 00:50:33;;;;;;;7.90;4.40;;;;;;;7.82;66.48;100459.29;133863;1302;22360;-75
2023/05/29 00:54:01;;;;;;;7.00;4.50;;;;;;;7.77;66.29;100458.27;133648;1298;23190;-75
2023/05/29 00:57:12;;;;;;;;;;;;;;;;;;;;;
2023/05/29 01:00:40;;;;;;;13.80;4.50;;;;;;;7.68;66.34;100454.55;133556;1301;22633;-76
2023/05/29 01:03:59;;;;;;;12.50;4.70;;;;;;;7.65;66.46;100449.70;133875;1302;22429;-75
2023/05/29 01:07:22;;;;;;;7.40;4.80;;;;;;;7.63;66.70;100455.52;133717;1299;22836;-76
2023/05/29 01:10:50;;;;;;;;;;;;;;;;;;;;;
2023/05/29 01:14:44;;;;;;;;;;;;;;;;;;;;;
2023/05/29 01:18:17;;;;;;;7.50;4.70;;;;;;;7.47;67.07;100460.31;133908;1298;22976;-76
2023/05/29 01:21:42;;;;;;;6.00;4.50;;;;;;;7.44;67.06;100462.02;133938;1301;22440;-75
2023/05/29 01:25:04;;;;;;;9.30;4.40;;;;;;;7.45;67.53;100464.77;133865;1302;23653;-76
2023/05/29 01:28:11;;;;;;;11.20;3.90;;;;;;;7.40;67.38;100459.71;133841;1301;23169;-75
2023/05/29 01:31:27;;;;;;;6.60;3.90;;;;;;;7.38;67.42;100460.99;133540;1304;22424;-74
2023/05/29 01:34:28;;;;;;;6.70;3.90;;;;;;;7.30;67.48;100460.27;133901;1301;22263;-76
2023/05/29 01:37:38;;;;;;;9.90;4.40;;;;;;;7.24;67.71;100456.95;133598;1301;22240;-75
2023/05/29 01:40:39;;;;;;;6.60;4.10;;;;;;;7.22;67.77;100457.36;133914;1299;22455;-78
2023/05/29 01:43:40;;;;;;;7.60;4.40;;;;;;;7.19;67.93;100452.98;133769;1299;22124;-74
2023/05/29 01:46:49;;;;;;;11.10;4.60;;;;;;;7.16;68.12;100447.36;133907;1301;22636;-77
2023/05/29 01:50:12;;;;;;;8.50;4.50;;;;;;;7.11;68.26;100446.48;133899;1301;22321;-76
2023/05/29 01:53:13;;;;;;;8.90;4.60;;;;;;;7.06;68.16;100445.34;133881;1304;23304;-74
2023/05/29 01:56:15;;;;;;;10.60;4.80;;;;;;;7.05;68.34;100442.96;133730;1302;22406;-74
2023/05/29 01:59:16;;;;;;;12.70;5.10;;;;;;;7.03;68.31;100444.38;133721;1302;22358;-76
2023/05/29 02:02:40;;;;;;;;;;;;;;;;;;;;;
2023/05/29 02:05:43;;;;;;;9.00;5.00;;;;;;;6.97;68.51;100440.00;133803;1302;23128;-74
2023/05/29 02:09:03;;;;;;;;;;;;;;;;;;;;;
2023/05/29 02:12:07;;;;;;;7.10;4.20;;;;;;;6.89;68.96;100443.52;133804;1300;22128;-75
2023/05/29 02:15:09;;;;;;;7.40;4.40;;;;;;;6.87;69.13;100447.36;133621;1301;22338;-77
2023/05/29 02:18:41;;;;;;;7.60;4.50;;;;;;;6.85;69.13;100442.98;133731;1307;23043;-74
2023/05/29 02:21:44;;;;;;;5.90;4.30;;;;;;;6.83;69.11;100446.65;133725;1300;22506;-75
2023/05/29 02:25:09;;;;;;;8.50;4.60;;;;;;;6.81;69.05;100448.77;133885;1298;22495;-74
2023/05/29 02:28:10;;;;;;;9.60;4.90;;;;;;;6.79;69.22;100449.64;133709;1302;22402;-75
2023/05/29 02:31:18;;;;;;;8.80;4.80;;;;;;;6.77;69.15;100451.95;133726;1299;22322;-74
2023/05/29 02:34:41;;;;;;;10.60;5.60;;;;;;;6.72;69.49;100447.60;133870;1299;22380;-75
2023/05/29 02:38:06;;;;;;;;;;;;;;;;;;;;;
2023/05/29 02:41:28;;;;;;;9.20;4.60;;;;;;;6.67;69.82;100451.23;133860;1298;22165;-74
2023/05/29 02:44:42;;;;;;;7.80;4.10;;;;;;;6.63;69.52;100453.16;133904;1300;22158;-74
2023/05/29 02:47:49;;;;;;;7.30;4.80;;;;;;;6.54;69.60;100452.52;133855;1301;22374;-75
2023/05/29 02:50:50;;;;;;;7.30;4.50;;;;;;;6.49;69.96;100448.70;133809;1301;23143;-74
2023/05/29 02:53:51;;;;;;;;;;;;;;;6.47;69.86;100446.77;133898;1301;22532;-78
2023/05/29 02:56:55;;;;;;;7.20;4.20;;;;;;;6.44;69.96;100447.19;133890;1301;22170;-74
2023/05/29 02:59:55;;;;;;;7.00;4.60;;;;;;;6.41;70.03;100444.81;133677;1301;23261;-74
2023/05/29 03:03:00;;;;;;;8.30;4.90;;;;;;;6.38;70.44;100446.88;133700;1298;22373;-74
2023/05/29 03:06:02;;;;;;;11.20;4.90;;;;;;;6.37;70.21;100444.49;133728;1299;22247;-74
2023/05/29 03:09:19;;;;;;;8.40;4.90;;;;;;;6.41;70.45;100444.73;133912;1301;22398;-77
2023/05/29 03:12:21;;;;;;;5.80;4.30;;;;;;;6.41;70.67;100446.14;133904;1300;23327;-74
2023/05/29 03:15:37;;;;;;;10.80;5.00;;;;;;;6.41;70.67;100450.84;133899;1298;22432;-74
2023/05/29 03:18:38;;;;;;;6.90;4.50;;;;;;;6.50;70.81;100452.84;133740;1300;22418;-75
2023/05/29 03:21:59;;;;;;;11.90;4.50;;;;;;;6.62;70.72;100456.36;133673;1302;22455;-74
2023/05/29 03:25:07;;;;;;;6.20;4.00;;;;;;;6.75;70.68;100460.05;133922;1298;22366;-76
2023/05/29 03:28:26;;;;;;;7.60;4.60;;;;;;;6.86;70.73;100461.04;133560;1300;25112;-77
2023/05/29 03:31:31;;;;;;;8.40;4.80;;;;;;;7.01;70.72;100460.54;133737;1301;23119;-74
2023/05/29 03:34:38;;;;;;;7.10;4.30;;;;;;;7.21;70.99;100459.89;133714;1301;22384;-75
2023/05/29 03:38:01;;;;;;;;;;;;;;;;;;;;;
2023/05/29 03:41:02;;;;;;;9.30;4.60;;;;;;;7.81;70.62;100468.17;133698;1302;22144;-76
2023/05/29 03:44:14;;;;;;;;;;;;;;;;;;;;;
2023/05/29 03:51:18;;;;;;;6.80;4.10;;;;;;;8.65;70.37;100475.67;133615;1299;22394;-75
2023/05/29 03:54:23;;;;;;;8.00;5.60;;;;;;;9.03;70.09;100476.82;133703;1300;22411;-75
2023/05/29 03:58:03;;;;;;;;;;;;;;;;;;;;;
2023/05/29 04:01:08;;;;;;;13.00;5.40;;;;;;;9.90;69.64;100479.76;133740;1300;22924;-76
2023/05/29 04:04:12;;;;;;;9.20;4.90;;;;;;;10.35;69.23;100480.75;133696;1300;22597;-74
2023/05/29 04:07:25;;;;;;;8.30;4.80;;;;;;;10.72;68.69;100474.10;133900;1289;23207;-74
2023/05/29 04:10:38;;;;;;;13.30;4.90;;;;;;;11.10;68.24;100474.77;133852;1300;22414;-75
2023/05/29 04:14:26;;;;;;;12.80;4.70;;;;;;;11.50;67.77;100471.39;133897;1299;22262;-74
2023/05/29 04:17:36;;;;;;;10.10;5.30;;;;;;;12.04;67.16;100475.34;133713;1300;22403;-75
2023/05/29 04:21:15;;;;;;;11.00;6.00;;;;;;;12.49;66.51;100482.46;133657;1300;22355;-75
2023/05/29 04:24:27;;;;;;;10.40;5.80;;;;;;;12.86;65.93;100479.58;133909;1301;22376;-75
2023/05/29 04:28:08;;;;;;;;;;;;;;;;;;;;;
2023/05/29 04:31:29;;;;;;;9.40;5.30;;;;;;;13.88;64.95;100485.60;133933;1299;22373;-74
2023/05/29 04:34:42;;;;;;;10.90;5.00;;;;;;;14.41;64.18;100485.30;133959;1304;22468;-74
2023/05/29 04:38:35;;;;;;;;;;;;;;;;;;;;;
2023/05/29 04:42:32;;;;;;;;;;;;;;;;;;;;;
2023/05/29 04:46:17;;;;;;;14.30;5.50;;;;;;;15.40;61.71;100492.69;133703;1301;22390;-76
2023/05/29 04:49:31;;;;;;;;;;;;;;;;;;;;;
2023/05/29 04:52:43;;;;;;;6.50;4.90;;;;;;;16.40;60.80;100493.17;133711;1299;23281;-79
2023/05/29 04:56:29;;;;;;;;;;;;;;;;;;;;;
2023/05/29 05:00:03;;;;;;;11.60;4.80;;;;;;;17.20;58.74;100493.71;133712;1293;23022;-74
2023/05/29 05:03:58;;;;;;;;;;;;;;;;;;;;;
2023/05/29 05:07:52;;;;;;;7.80;5.50;;;;;;;18.06;57.21;100493.67;133663;1300;23112;-74
2023/05/29 05:15:00;;;;;;;9.00;5.10;;;;;;;18.71;55.32;100496.23;133736;1301;22931;-69
2023/05/29 05:18:32;;;;;;;9.60;5.20;;;;;;;18.82;54.59;100497.77;133681;1300;22205;-70
2023/05/29 05:21:42;;;;;;;9.40;4.90;;;;;;;19.22;54.35;100493.09;133903;1300;23050;-68
2023/05/29 05:25:27;;;;;;;8.60;4.80;;;;;;;19.64;53.72;100497.44;133584;1301;22343;-75
2023/05/29 05:29:32;;;;;;;10.00;4.60;;;;;;;20.06;53.23;100496.81;133749;1300;22369;-76
2023/05/29 05:33:18;;;;;;;9.50;5.00;;;;;;;20.62;52.09;100496.20;133645;1299;22383;-76
2023/05/29 05:37:04;;;;;;;;;;;;;;;;;;;;;
2023/05/29 05:41:16;;;;;;;6.40;4.50;;;;;;;21.37;50.92;100499.44;133989;1299;22284;-74
2023/05/29 05:44:22;;;;;;;6.60;4.40;;;;;;;21.78;49.74;100498.63;133834;1300;22543;-74
2023/05/29 05:48:48;;;;;;;12.10;4.20;;;;;;;21.93;48.98;100497.60;133778;1299;23241;-74
2023/05/29 05:52:35;;;;;;;;;;;;;;;;;;;;;
2023/05/29 05:56:14;;;;;;;9.60;4.20;;;;;;;22.44;47.47;100495.65;133815;1299;22535;-74
2023/05/29 06:04:11;;;;;;;;;;;;;;;;;;;;;
2023/05/29 06:08:08;;;;;;;8.60;6.00;;;;;;;23.04;45.42;100496.75;133969;1300;22366;-74
2023/05/29 06:12:12;;;;;;;;;;;;;;;;;;;;;
2023/05/29 06:15:53;;;;;;;6.50;4.10;;;;;;;23.45;44.01;100498.84;133795;1304;22209;-74
2023/05/29 06:28:27;;;;;;;;;;;;;;;;;;;;;
2023/05/29 06:32:14;;;;;;;11.10;4.30;;;;;;;24.48;41.47;100495.79;133908;1300;23158;-74
2023/05/29 06:36:49;;;;;;;6.80;3.70;;;;;;;24.61;41.15;100496.02;133628;1300;22470;-75
2023/05/29 06:53:16;;;;;;;12.70;3.80;;;;;;;25.21;39.58;100504.89;133956;1300;22365;-76
2023/05/29 06:57:53;;;;;;;6.70;3.60;;;;;;;25.63;39.25;100509.50;133882;1304;23046;-76
2023/05/29 07:01:51;;;;;;;;;;;;;;;;;;;;;
2023/05/29 07:10:14;;;;;;;;;;;;;;;;;;;;;
2023/05/29 07:14:25;;;;;;;12.10;3.60;;;;;;;26.17;37.86;100512.57;133774;1300;22342;-82
2023/05/29 07:18:32;;;;;;;;;;;;;;;;;;;;;
2023/05/29 07:22:51;;;;;;;6.80;3.10;;;;;;;26.42;37.21;100512.23;133671;1300;22359;-79
2023/05/29 07:26:18;;;;;;;;;;;;;;;;;;;;;
2023/05/29 07:43:10;;;;;;;4.10;2.40;;;;;;;27.01;35.18;100517.80;133736;1299;22230;-77
2023/05/29 07:46:15;;;;;;;3.50;2.10;;;;;;;26.87;34.28;100517.89;133628;1300;22459;-75
2023/05/29 07:49:33;;;;;;;8.90;2.80;;;;;;;26.29;33.78;100513.83;129090;1305;544969;-82
2023/05/29 07:52:35;;;;;;;7.10;2.20;;;;;;;26.26;34.29;100518.88;133110;1305;22523;-76
2023/05/29 07:55:36;;;;;;;5.20;2.60;;;;;;;26.61;34.17;100514.98;133101;1304;22358;-80
2023/05/29 07:58:37;;;;;;;5.60;2.50;;;;;;;26.81;33.85;100519.63;133084;1308;23008;-75
2023/05/29 08:01:39;;;;;;;3.20;2.50;;;;;;;26.87;33.29;100519.92;132970;1305;208594;-79
2023/05/29 08:04:47;;;;;;;7.10;2.80;;;;;;;27.07;33.43;100517.28;133392;1302;22436;-77
2023/05/29 08:07:48;;;;;;;4.60;2.50;;;;;;;27.35;33.19;100515.71;133726;1299;22348;-75
2023/05/29 08:10:49;;;;;;;5.40;2.30;;;;;;;27.56;32.90;100518.75;133805;1299;22370;-77
2023/05/29 08:13:50;;;;;;;3.10;2.40;;;;;;;27.63;32.25;100516.04;133641;1304;22445;-72
2023/05/29 08:16:51;;;;;;;5.00;2.30;;;;;;;27.61;32.40;100516.96;133694;1301;22443;-75
2023/05/29 08:19:53;;;;;;;7.10;2.50;;;;;;;27.72;32.18;100516.11;133844;1294;22976;-78
2023/05/29 08:22:54;;;;;;;3.00;2.60;;;;;;;27.97;32.00;100514.08;133801;1301;22362;-75
2023/05/29 08:25:55;;;;;;;6.00;2.20;;;;;;;28.03;31.63;100514.02;133807;1301;22272;-74
2023/05/29 08:28:56;;;;;;;4.10;2.00;;;;;;;28.05;30.69;100515.77;133893;1300;22211;-74
2023/05/29 08:31:56;;;;;;;4.30;2.40;;;;;;;28.08;30.65;100514.30;133833;1301;22195;-77
2023/05/29 08:34:57;;;;;;;4.50;1.80;;;;;;;28.27;29.98;100513.02;133855;1301;22287;-72
2023/05/29 08:37:59;;;;;;;5.10;2.10;;;;;;;28.34;29.29;100512.69;133575;1304;22201;-71
2023/05/29 08:40:59;;;;;;;6.10;2.30;;;;;;;28.13;28.38;100517.39;133786;1301;22483;-72
2023/05/29 08:44:04;;;;;;;9.00;2.10;;;;;;;27.85;27.77;100512.32;133805;1301;22392;-74
2023/05/29 08:47:07;;;;;;;4.40;2.20;;;;;;;27.73;28.47;100514.09;133861;1301;23235;-73
2023/05/29 08:50:09;;;;;;;5.50;2.30;;;;;;;27.92;28.31;100513.09;133641;1301;22351;-73
2023/05/29 08:53:11;;;;;;;2.60;2.20;;;;;;;27.97;27.99;100512.23;133857;1301;23232;-76
2023/05/29 08:56:12;;;;;;;6.30;2.70;;;;;;;27.89;27.20;100515.92;133708;1301;23121;-73
2023/05/29 08:59:12;;;;;;;8.10;2.60;;;;;;;27.83;27.51;100514.40;133837;1300;23095;-73
2023/05/29 09:02:14;;;;;;;2.60;2.20;;;;;;;28.07;28.00;100517.88;133789;1300;22410;-72
2023/05/29 09:05:16;;;;;;;4.40;2.10;;;;;;;28.09;27.57;100514.11;133774;1301;22409;-79
2023/05/29 09:08:17;;;;;;;3.10;2.20;;;;;;;27.60;26.77;100510.52;133808;1287;22338;-74
2023/05/29 09:11:18;;;;;;;6.60;2.60;;;;;;;27.31;26.78;100517.39;133773;1300;22141;-73
2023/05/29 09:14:35;;;;;;;4.60;2.20;;;;;;;27.19;26.61;100516.85;133597;1300;23342;-75
2023/05/29 09:17:36;;;;;;;6.60;2.20;;;;;;;27.02;27.06;100514.00;133641;1300;23222;-74
2023/05/29 09:20:37;;;;;;;6.00;2.40;;;;;;;27.01;26.72;100519.44;133818;1300;22352;-74
2023/05/29 09:23:37;;;;;;;2.70;2.10;;;;;;;26.93;27.17;100520.71;133757;1301;22467;-72
2023/05/29 09:26:38;;;;;;;3.70;2.10;;;;;;;27.20;27.57;100516.24;133811;1299;23191;-74
2023/05/29 09:29:41;;;;;;;5.50;2.20;;;;;;;27.70;27.45;100513.27;133835;1300;22137;-74
2023/05/29 09:32:55;;;;;;;5.20;2.30;;;;;;;27.87;26.72;100515.81;133645;1301;22222;-81
2023/05/29 09:35:55;;;;;;;4.80;2.50;;;;;;;27.68;26.75;100519.15;133815;1301;22463;-77
2023/05/29 09:38:56;;;;;;;6.60;2.30;;;;;;;27.45;26.57;100519.11;133829;1300;22415;-74
2023/05/29 09:41:58;;;;;;;3.70;2.10;;;;;;;27.42;27.09;100516.11;133788;1301;22209;-82
2023/05/29 09:44:59;;;;;;;3.40;2.40;;;;;;;27.30;27.03;100520.97;133805;1300;22216;-76
2023/05/29 09:48:01;;;;;;;4.40;2.10;;;;;;;26.61;26.53;100516.77;133786;1301;23678;-74
2023/05/29 09:51:02;;;;;;;4.60;2.20;;;;;;;26.55;27.31;100514.14;133854;1301;22365;-78
2023/05/29 09:54:16;;;;;;;9.00;2.70;;;;;;;26.40;27.32;100515.22;133649;1303;22405;-73
2023/05/29 09:57:17;;;;;;;7.00;2.10;;;;;;;26.35;27.66;100517.70;133799;1300;22362;-77
2023/05/29 10:00:39;;;;;;;5.90;2.20;;;;;;;26.53;28.02;100513.86;133830;1300;22281;-73
2023/05/29 10:03:42;;;;;;;3.70;2.10;;;;;;;26.76;27.92;100511.05;133657;1301;22377;-75
2023/05/29 10:06:48;;;;;;;4.60;2.70;;;;;;;26.58;28.02;100506.45;133814;1298;22258;-74
2023/05/29 10:09:55;;;;;;;2.50;2.20;;;;;;;26.24;27.41;100510.98;133790;1301;22356;-75
2023/05/29 10:12:56;;;;;;;5.50;2.50;;;;;;;25.94;27.76;100512.49;133868;1300;22893;-76
2023/05/29 10:16:00;;;;;;;6.40;2.50;;;;;;;26.24;28.22;100507.27;133835;1301;22463;-80
2023/05/29 10:19:07;;;;;;;4.10;2.20;;;;;;;26.46;27.83;100502.94;133674;1299;23261;-74
2023/05/29 10:22:10;;;;;;;5.80;1.90;;;;;;;26.18;27.67;100507.62;133646;1300;22396;-73
2023/05/29 10:25:17;;;;;;;5.30;2.50;;;;;;;26.00;27.98;100507.81;133906;1300;22425;-83
2023/05/29 10:28:23;;;;;;;6.80;2.50;;;;;;;25.97;28.16;100504.96;133659;1303;22184;-84
2023/05/29 10:31:51;;;;;;;3.30;2.50;;;;;;;26.30;28.37;100496.02;133806;1301;22433;-83
2023/05/29 10:35:08;;;;;;;7.80;2.90;;;;;;;26.63;28.00;100495.02;133764;1307;22452;-79
2023/05/29 10:38:18;;;;;;;5.40;2.70;;;;;;;26.78;28.23;100494.55;133836;1300;22165;-85
2023/05/29 10:41:27;;;;;;;5.10;2.40;;;;;;;27.21;28.13;100494.80;133805;1301;22374;-83
2023/05/29 10:45:11;;;;;;;4.30;2.40;;;;;;;27.58;27.83;100491.98;133773;1304;22785;-84
2023/05/29 10:48:28;;;;;;;5.40;2.40;;;;;;;27.77;27.88;100487.34;133808;1301;22356;-84
2023/05/29 10:51:31;;;;;;;5.50;2.90;;;;;;;27.62;27.52;100485.67;133776;1301;22413;-85
2023/05/29 10:54:40;;;;;;;8.00;2.60;;;;;;;27.35;27.44;100483.08;133781;1305;22354;-85
2023/05/29 10:57:46;;;;;;;;;;;;;;;26.94;27.79;100476.67;133561;1302;22471;-86
2023/05/29 11:00:48;;;;;;;5.30;2.60;;;;;;;26.81;28.18;100484.63;133752;1301;22360;-84
2023/05/29 11:03:49;;;;;;;10.50;2.60;;;;;;;26.95;28.12;100485.05;133485;1299;22364;-83
2023/05/29 11:06:50;;;;;;;8.30;3.00;;;;;;;26.89;28.39;100480.88;133866;1300;22851;-84
2023/05/29 11:09:51;;;;;;;7.30;2.70;;;;;;;26.87;28.50;100482.41;133827;1300;24448;-82
2023/05/29 11:12:59;;;;;;;4.60;2.70;;;;;;;26.79;28.21;100477.15;133791;1300;22398;-86
2023/05/29 11:16:14;;;;;;;8.50;3.10;;;;;;;25.97;28.08;100484.70;133791;1301;22407;-84
2023/05/29 11:19:16;;;;;;;5.00;2.60;;;;;;;25.53;28.56;100477.08;133785;1301;22422;-84
2023/05/29 11:22:23;;;;;;;6.10;3.00;;;;;;;25.71;28.91;100473.02;133668;1307;22434;-84
2023/05/29 11:25:24;;;;;;;5.00;3.10;;;;;;;26.05;28.82;100468.95;133771;1300;22344;-86
2023/05/29 11:28:32;;;;;;;9.50;3.10;;;;;;;26.34;28.59;100465.35;133804;1300;22887;-85
2023/05/29 11:31:34;;;;;;;6.50;2.60;;;;;;;26.70;28.93;100464.80;133837;1300;22346;-84
2023/05/29 11:35:01;;;;;;;5.60;2.50;;;;;;;26.87;28.61;100468.58;133836;1301;22835;-83
2023/05/29 11:38:02;;;;;;;3.80;2.70;;;;;;;26.85;28.51;100472.88;133675;1301;23148;-84
2023/05/29 11:41:03;;;;;;;8.80;2.70;;;;;;;26.90;28.49;100472.40;133793;1301;22422;-83
2023/05/29 11:44:23;;;;;;;8.50;2.70;;;;;;;26.97;27.86;100468.39;133793;1302;22585;-86
2023/05/29 11:47:24;;;;;;;8.90;2.80;;;;;;;26.44;27.81;100472.70;133774;1302;22384;-85
2023/05/29 11:50:30;;;;;;;4.70;2.80;;;;;;;25.47;28.25;100479.04;133798;1301;22488;-87
2023/05/29 11:53:33;;;;;;;6.40;3.10;;;;;;;24.83;28.80;100475.92;133691;1307;23101;-87
2023/05/29 11:56:34;;;;;;;4.00;2.10;;;;;;;24.86;29.09;100469.66;133748;1300;22441;-86
2023/05/29 11:59:52;;;;;;;;;;;;;;;;;;;;;
2023/05/29 12:03:37;;;;;;;4.10;2.60;;;;;;;25.39;29.09;100461.23;133795;1300;22461;-86
2023/05/29 12:06:38;;;;;;;6.50;2.50;;;;;;;25.62;28.58;100461.53;133869;1300;23207;-83
2023/05/29 12:09:41;;;;;;;5.40;2.60;;;;;;;25.83;28.56;100451.45;133806;1300;22465;-84
2023/05/29 12:12:42;;;;;;;5.60;2.50;;;;;;;25.94;28.39;100450.79;133880;1300;23390;-84
2023/05/29 12:15:48;;;;;;;5.50;2.60;;;;;;;25.99;28.27;100450.70;133515;1304;22992;-84
2023/05/29 12:18:54;;;;;;;4.50;2.60;;;;;;;26.10;28.58;100451.98;133832;1307;23209;-82
2023/05/29 12:22:18;;;;;;;5.00;2.40;;;;;;;26.34;28.45;100459.75;133783;1300;23199;-85
2023/05/29 12:25:22;;;;;;;8.90;2.60;;;;;;;26.41;28.13;100448.95;133813;1301;22460;-83
2023/05/29 12:28:23;;;;;;;4.60;2.70;;;;;;;26.38;27.96;100445.24;133644;1307;22350;-84
2023/05/29 12:31:33;;;;;;;4.90;2.90;;;;;;;26.42;28.04;100441.95;133838;1301;22461;-85
2023/05/29 12:34:39;;;;;;;;;;;;;;;26.52;27.91;100435.55;133684;1301;22447;-85
2023/05/29 12:37:48;;;;;;;9.80;2.60;;;;;;;26.51;27.95;100439.77;133827;1300;22578;-85
2023/05/29 12:40:49;;;;;;;6.30;2.70;;;;;;;26.46;27.74;100434.35;133710;1302;22455;-85
2023/05/29 12:43:54;;;;;;;6.90;2.90;;;;;;;26.41;27.78;100431.66;133829;1301;22440;-86
2023/05/29 12:46:57;;;;;;;7.70;2.60;;;;;;;26.40;27.80;100428.23;133805;1300;22418;-86
2023/05/29 12:49:57;;;;;;;4.50;2.80;;;;;;;26.47;28.19;100421.15;133492;1301;22372;-84
2023/05/29 12:53:06;;;;;;;5.20;2.70;;;;;;;26.58;27.80;100427.80;133829;1301;23017;-84
2023/05/29 12:56:06;;;;;;;3.50;2.90;;;;;;;26.50;27.41;100429.00;133782;1300;23196;-86
2023/05/29 12:59:11;;;;;;;3.90;2.60;;;;;;;26.44;27.85;100429.11;133778;1301;22320;-84
2023/05/29 13:02:11;;;;;;;6.00;2.80;;;;;;;26.42;27.64;100430.58;133783;1301;22425;-84
2023/05/29 13:05:15;;;;;;;6.60;2.80;;;;;;;26.44;27.35;100420.26;133798;1301;22938;-84
2023/05/29 13:08:38;;;;;;;6.20;2.80;;;;;;;26.43;27.37;100423.25;133758;1299;23502;-85
2023/05/29 13:11:39;;;;;;;5.60;2.50;;;;;;;26.37;27.66;100419.41;133790;1300;22430;-84
2023/05/29 13:14:40;;;;;;;3.20;2.50;;;;;;;26.35;27.68;100410.35;133802;1300;23000;-83
2023/05/29 13:17:41;;;;;;;4.30;2.60;;;;;;;26.39;27.64;100407.55;133824;1300;22481;-83
2023/05/29 13:20:42;;;;;;;3.80;2.60;;;;;;;26.40;27.88;100406.63;133821;1302;22431;-86
2023/05/29 13:23:42;;;;;;;7.60;2.50;;;;;;;26.43;28.01;100404.25;133800;1308;22151;-86
2023/05/29 13:27:05;;;;;;;23.70;3.70;;;;;;;26.45;28.08;100400.44;133816;1301;22402;-83
2023/05/29 13:30:06;;;;;;;4.60;2.50;;;;;;;26.40;28.02;100396.95;133851;1301;22489;-84
2023/05/29 13:33:07;;;;;;;5.40;2.40;;;;;;;26.23;27.65;100401.20;133816;1301;22453;-85
2023/05/29 13:36:28;;;;;;;4.30;2.40;;;;;;;25.88;27.67;100400.39;133783;1301;22495;-83
2023/05/29 13:39:31;;;;;;;6.00;2.50;;;;;;;25.48;27.89;100401.14;133755;1301;22492;-84
2023/05/29 13:42:32;;;;;;;6.90;3.00;;;;;;;25.16;28.46;100398.48;133792;1307;23140;-85
2023/05/29 13:45:33;;;;;;;5.00;2.60;;;;;;;24.90;28.83;100395.45;133613;1303;23229;-83
2023/05/29 13:48:34;;;;;;;3.30;2.70;;;;;;;24.68;28.80;100392.11;133655;1301;23395;-84
2023/05/29 13:51:36;;;;;;;6.00;2.80;;;;;;;24.48;28.80;100392.77;133784;1301;22435;-84
2023/05/29 13:54:37;;;;;;;6.30;2.90;;;;;;;24.32;28.96;100389.80;133831;1301;23224;-84
2023/05/29 13:57:37;;;;;;;4.80;2.50;;;;;;;24.33;29.37;100393.92;133776;1301;23065;-84
2023/05/29 14:00:38;;;;;;;4.80;2.80;;;;;;;24.44;29.11;100388.50;133761;1301;22994;-82
2023/05/29 14:03:42;;;;;;;4.60;2.80;;;;;;;24.54;29.58;100385.34;133771;1300;22370;-87
2023/05/29 14:06:42;;;;;;;4.40;2.50;;;;;;;24.67;29.78;100382.81;133790;1300;22361;-83
2023/05/29 14:09:43;;;;;;;5.70;3.10;;;;;;;24.62;29.86;100384.02;133783;1301;22400;-84
2023/05/29 14:12:44;;;;;;;4.50;2.70;;;;;;;24.61;30.09;100387.58;133743;1301;22410;-85
2023/05/29 14:15:44;;;;;;;8.30;3.10;;;;;;;24.48;29.75;100383.61;133768;1301;22385;-83
2023/05/29 14:18:48;;;;;;;4.80;2.90;;;;;;;24.30;29.74;100386.23;133761;1302;22258;-85
2023/05/29 14:21:52;;;;;;;6.10;2.60;;;;;;;24.20;29.70;100384.20;133793;1300;23107;-84
2023/05/29 14:24:53;;;;;;;8.70;2.70;;;;;;;24.19;29.97;100383.44;133775;1301;22422;-84
2023/05/29 14:27:54;;;;;;;7.10;3.10;;;;;;;24.31;30.02;100381.37;133772;1301;22366;-83
2023/05/29 14:30:55;;;;;;;10.80;2.60;;;;;;;24.47;29.97;100378.51;133757;1301;22675;-84
2023/05/29 14:33:56;;;;;;;7.10;2.90;;;;;;;24.59;30.13;100378.06;133779;1300;22226;-84
2023/05/29 14:36:57;;;;;;;5.10;3.00;;;;;;;24.60;29.80;100377.75;133763;1301;23106;-83
2023/05/29 14:39:58;;;;;;;5.30;2.30;;;;;;;24.53;29.92;100379.28;133749;1300;22345;-83
2023/05/29 14:43:01;;;;;;;5.00;2.60;;;;;;;24.50;30.24;100374.10;133736;1300;22384;-85
2023/05/29 14:46:02;;;;;;;6.70;2.90;;;;;;;24.42;30.02;100375.73;133751;1301;23433;-89
2023/05/29 14:49:03;;;;;;;3.50;2.40;;;;;;;24.30;30.03;100377.44;133754;1301;22529;-90
2023/05/29 14:52:07;;;;;;;4.70;2.90;;;;;;;24.06;30.15;100376.87;133793;1301;22910;-90
2023/05/29 14:55:08;;;;;;;12.40;2.80;;;;;;;23.91;30.01;100377.56;133661;1303;23161;-84
2023/05/29 14:58:12;;;;;;;6.30;3.00;;;;;;;23.86;30.21;100374.56;133834;1300;22412;-82
2023/05/29 15:01:12;;;;;;;6.30;3.20;;;;;;;23.93;30.58;100378.25;133833;1301;23113;-81
2023/05/29 15:04:13;;;;;;;6.80;2.50;;;;;;;24.00;30.93;100375.63;133802;1300;22407;-81
2023/05/29 15:07:14;;;;;;;3.60;3.00;;;;;;;24.01;30.58;100370.51;133786;1300;22389;-81
2023/05/29 15:10:17;;;;;;;3.50;2.40;;;;;;;23.91;30.26;100379.73;133628;1300;22136;-81
2023/05/29 15:13:18;;;;;;;6.10;3.00;;;;;;;23.83;30.71;100372.02;133637;1302;22416;-80
2023/05/29 15:16:19;;;;;;;9.30;3.20;;;;;;;23.83;31.07;100374.56;133801;1300;22412;-81
2023/05/29 15:19:20;;;;;;;7.10;3.50;;;;;;;23.70;31.45;100375.49;133768;1307;23749;-81
2023/05/29 15:22:21;;;;;;;7.60;3.60;;;;;;;23.50;31.90;100377.23;133737;1307;22361;-81
2023/05/29 15:25:25;;;;;;;7.00;3.30;;;;;;;23.36;31.84;100380.73;133705;1302;22499;-81
2023/05/29 15:28:25;;;;;;;8.10;3.90;;;;;;;23.23;31.93;100380.55;133799;1301;22351;-82
2023/05/29 15:31:26;;;;;;;6.20;3.80;;;;;;;23.05;32.05;100381.80;133733;1300;22904;-83
2023/05/29 15:34:27;;;;;;;11.30;3.70;;;;;;;22.93;32.42;100380.58;133724;1300;22440;-82
2023/05/29 15:37:28;;;;;;;5.10;3.30;;;;;;;22.86;32.69;100382.89;133789;1307;22443;-84
2023/05/29 15:40:29;;;;;;;8.20;3.00;;;;;;;22.83;33.07;100383.38;133753;1300;23080;-78
2023/05/29 15:43:33;;;;;;;4.90;3.40;;;;;;;22.81;33.25;100381.78;133837;1301;23160;-85
2023/05/29 15:46:34;;;;;;;6.80;3.60;;;;;;;22.86;33.52;100382.45;133835;1300;22442;-81
2023/05/29 15:49:38;;;;;;;9.00;3.70;;;;;;;22.91;33.50;100382.64;133771;1300;23157;-83
2023/05/29 15:52:39;;;;;;;5.10;3.40;;;;;;;22.90;33.34;100380.34;133849;1301;22404;-82
2023/05/29 15:55:42;;;;;;;6.80;3.50;;;;;;;22.79;33.44;100381.29;133652;1301;22341;-84
2023/05/29 15:58:46;;;;;;;10.30;3.80;;;;;;;22.69;33.65;100383.42;133769;1301;22536;-83
2023/05/29 16:01:47;;;;;;;7.00;3.40;;;;;;;22.61;34.00;100379.64;133784;1300;22359;-81
2023/05/29 16:04:47;;;;;;;6.60;3.80;;;;;;;22.57;34.10;100382.08;133819;1301;22429;-84
2023/05/29 16:07:48;;;;;;;5.20;3.50;;;;;;;22.51;34.22;100385.11;133815;1301;22433;-82
2023/05/29 16:11:06;;;;;;;7.40;4.10;;;;;;;22.45;34.28;100382.77;133795;1300;22158;-83
2023/05/29 16:14:28;;;;;;;6.10;3.70;;;;;;;22.42;34.57;100382.94;133531;1300;22443;-83
2023/05/29 16:17:29;;;;;;;8.50;3.70;;;;;;;22.42;34.40;100383.69;133845;1301;22388;-83
2023/05/29 16:20:30;;;;;;;8.60;4.10;;;;;;;22.40;34.46;100382.67;133890;1300;22441;-82
2023/05/29 16:23:31;;;;;;;8.30;4.30;;;;;;;22.38;34.46;100382.09;133779;1302;22180;-83
2023/05/29 16:26:33;;;;;;;9.20;4.60;;;;;;;22.38;34.62;100383.55;133814;1301;22237;-83
2023/05/29 16:29:34;;;;;;;16.50;4.50;;;;;;;22.42;34.75;100384.48;133840;1301;22449;-82